Flight Track Log - Related Links

Times and Time Zones

All times are in EDT time to prevent confusion due to time zone crossing. See the CSN6511 flight status page for this flight to view local times or setup timezone preferences in your user account.

Time Position Orientation Groundspeed Altitude Reporting Facility
EDT Latitude Longitude Course Direction KTS MPH feet Rate Location/Type
Fri 05:47:00 AM 36.0063 112.2789 356° North  Level Estimated
Fri 05:48:00 AM 36.1117 112.2696 356° North  Level Estimated
Fri 05:49:00 AM 36.2171 112.2603 356° North  Level Estimated
Fri 05:50:00 AM 36.3225 112.2510 356° North  Level Estimated
Fri 05:51:00 AM 36.4280 112.2417 356° North  Level Estimated
Fri 05:52:00 AM 36.5334 112.2323 356° North  Level Estimated
Fri 05:53:00 AM 36.6388 112.2229 356° North  Level Estimated
Fri 05:54:00 AM 36.7442 112.2135 356° North  Level Estimated
Fri 05:55:00 AM 36.8496 112.2040 356° North  Level Estimated
Fri 05:56:00 AM 36.9551 112.1945 356° North  Level Estimated
Fri 05:57:00 AM 37.0605 112.1850 356° North  Level Estimated
Fri 05:58:00 AM 37.1659 112.1755 356° North  Level Estimated
Fri 05:59:00 AM 37.2713 112.1659 356° North  Level Estimated
Fri 06:00:00 AM 37.3767 112.1563 356° North  Level Estimated
Fri 06:01:00 AM 37.4821 112.1467 356° North  Level Estimated
Fri 06:02:00 AM 37.5875 112.1371 356° North  Level Estimated
Fri 06:03:00 AM 37.6930 112.1274 356° North  Level Estimated
Fri 06:04:00 AM 37.7984 112.1177 356° North  Level Estimated
Fri 06:05:00 AM 37.9038 112.1080 356° North  Level Estimated
Fri 06:06:00 AM 38.0092 112.0983 356° North  Level Estimated
Fri 06:07:00 AM 38.1146 112.0885 356° North  Level Estimated
Fri 06:08:00 AM 38.2200 112.0787 356° North  Level Estimated
Fri 06:09:00 AM 38.3254 112.0688 356° North  Level Estimated
Fri 06:10:00 AM 38.4308 112.0590 356° North  Level Estimated
Fri 06:11:00 AM 38.5362 112.0491 356° North  Level Estimated
Fri 06:12:00 AM 38.6416 112.0392 356° North  Level Estimated
Fri 06:13:00 AM 38.7470 112.0292 356° North  Level Estimated
Fri 06:14:00 AM 38.8525 112.0192 356° North  Level Estimated
Fri 06:15:00 AM 38.9579 112.0092 356° North  Level Estimated
Fri 06:16:00 AM 39.0633 111.9992 356° North  Level Estimated
Fri 06:17:00 AM 39.1687 111.9891 356° North  Level Estimated
Fri 06:18:00 AM 39.2741 111.9790 356° North  Level Estimated
Fri 06:19:00 AM 39.3795 111.9689 356° North  Level Estimated
Fri 06:20:00 AM 39.4849 111.9587 356° North  Level Estimated
Fri 06:21:00 AM 39.5902 111.9485 356° North  Level Estimated
Fri 06:22:00 AM 39.6956 111.9383 356° North  Level Estimated
Fri 06:23:00 AM 39.8010 111.9281 356° North  Level Estimated
Fri 06:24:00 AM 39.9064 111.9178 356° North  Level Estimated
Fri 06:25:00 AM 40.0118 111.9074 356° North  Level Estimated
Fri 06:26:00 AM 40.1172 111.8971 356° North  Level Estimated
Fri 06:27:00 AM 40.2226 111.8867 356° North  Level Estimated
Fri 06:28:00 AM 40.3280 111.8763 356° North  Level Estimated
Fri 06:29:00 AM 40.4334 111.8659 356° North  Level Estimated
Fri 06:30:00 AM 40.5388 111.8554 356° North  Level Estimated
Fri 06:31:00 AM 40.6442 111.8449 356° North  Level Estimated
Fri 06:32:00 AM 40.7496 111.8343 356° North  Level Estimated
Fri 06:33:00 AM 40.8514 111.8241 356° North  Level Estimated
Fri 06:34:00 AM 40.8514 111.8241 North  Level Estimated
Fri 06:35:00 AM 40.8514 111.8241 North  Level Estimated
Fri 06:36:00 AM 40.8514 111.8241 North  Level Estimated
Fri 06:37:00 AM 40.8514 111.8241 North  Level Estimated
Fri 06:38:00 AM 40.8514 111.8241 North  Level Estimated
Fri 06:39:00 AM 40.8514 111.8241 North  Level Estimated
Fri 06:40:00 AM 40.8514 111.8241 North  Level Estimated
Fri 06:41:00 AM 40.8514 111.8241 North  Level Estimated
Fri 06:42:00 AM 40.8514 111.8241 North  Level Estimated
Fri 06:43:00 AM 40.8514 111.8241 North  Level Estimated
Fri 06:44:00 AM 40.8514 111.8241 North  Level Estimated
Fri 06:45:00 AM 40.8514 111.8241 North  Level Estimated
Fri 06:46:00 AM 40.8514 111.8241 North  Level Estimated
Fri 06:47:00 AM 40.8514 111.8241 North  Level Estimated
Fri 06:48:00 AM 40.8514 111.8241 North  Level Estimated
Fri 06:49:00 AM 40.8514 111.8241 North  Level Estimated

Login

Don't have an account? Register now (free) for customized features, flight alerts, and more!